Time;durP1;ratioP1;P1;durP2;ratioP2;P2;SDS_P1;SDS_P2;PMS_P1;PMS_P2;Temp;Humidity;BMP_temperature;BMP_pressure;BME280_temperature;BME280_humidity;BME280_pressure;Samples;Min_cycle;Max_cycle;Signal;HPM_P1;HPM_P2
2021/09/25 00:01:42;;;;;;;;;;;;;;;21.84;58.81;100810.97;5026272;28;2252;-42
2021/09/25 00:04:10;;;;;;;;;;;;;;;21.80;58.80;100812.25;5026148;28;1696;-42
2021/09/25 00:06:36;;;;;;;;;;;;;;;21.80;58.71;100820.34;5029795;28;1151;-41
2021/09/25 00:09:03;;;;;;;;;;;;;;;21.81;58.78;100818.50;5026163;28;1885;-41
2021/09/25 00:11:29;;;;;;;;;;;;;;;21.81;58.80;100830.13;5026507;28;1683;-41
2021/09/25 00:13:56;;;;;;;;;;;;;;;21.80;58.55;100833.78;5026133;28;2313;-41
2021/09/25 00:16:25;;;;;;;;;;;;;;;21.82;58.51;100831.78;5030485;28;1111;-41
2021/09/25 00:18:52;;;;;;;;;;;;;;;21.82;58.54;100828.25;5024035;28;1514;-42
2021/09/25 00:21:20;;;;;;;;;;;;;;;21.80;58.69;100839.19;5024054;28;1694;-43
2021/09/25 00:23:46;;;;;;;;;;;;;;;21.79;58.69;100834.81;5028187;28;1819;-41
2021/09/25 00:26:13;;;;;;;;;;;;;;;21.80;58.55;100833.78;5026158;28;1815;-41
2021/09/25 00:28:40;;;;;;;;;;;;;;;21.82;58.67;100837.19;5025651;28;1537;-41
2021/09/25 00:31:06;;;;;;;;;;;;;;;21.77;58.83;100842.19;5025067;28;1908;-41
2021/09/25 00:33:33;;;;;;;;;;;;;;;21.78;58.12;100838.50;5023655;28;1906;-41
2021/09/25 00:35:59;;;;;;;;;;;;;;;21.78;58.35;100846.56;5027144;28;1048;-41
2021/09/25 00:38:27;;;;;;;;;;;;;;;21.78;58.75;100840.34;5031138;28;2156;-41
2021/09/25 00:40:54;;;;;;;;;;;;;;;21.78;58.88;100851.09;5025877;28;1802;-41
2021/09/25 00:43:20;;;;;;;;;;;;;;;21.78;58.81;100837.66;5024033;28;1703;-41
2021/09/25 00:45:47;;;;;;;;;;;;;;;21.78;58.56;100843.88;5023871;28;2256;-42
2021/09/25 00:48:13;;;;;;;;;;;;;;;21.81;58.23;100870.50;5024768;28;1483;-42
2021/09/25 00:50:40;;;;;;;;;;;;;;;21.78;58.66;100851.94;5025984;28;1055;-41
2021/09/25 00:53:06;;;;;;;;;;;;;;;21.78;58.60;100845.72;5032223;28;1670;-42
2021/09/25 00:55:35;;;;;;;;;;;;;;;21.77;58.28;100863.72;5023334;28;1969;-41
2021/09/25 00:58:03;;;;;;;;;;;;;;;21.82;58.72;100865.94;5023392;28;2281;-41
2021/09/25 01:00:30;;;;;;;;;;;;;;;21.79;58.21;100872.50;5025332;28;1612;-41
2021/09/25 01:02:57;;;;;;;;;;;;;;;21.76;58.02;100864.72;5023939;28;1815;-42
2021/09/25 01:05:24;;;;;;;;;;;;;;;21.83;58.36;100881.13;5027484;28;1065;-41
2021/09/25 01:07:51;;;;;;;;;;;;;;;21.75;58.18;100875.66;5017325;28;1664;-41
2021/09/25 01:10:18;;;;;;;;;;;;;;;21.77;58.50;100885.25;5023836;28;2256;-42
2021/09/25 01:12:47;;;;;;;;;;;;;;;21.75;58.16;100873.81;5024929;28;1603;-41
2021/09/25 01:15:14;;;;;;;;;;;;;;;21.75;57.86;100881.03;5023912;28;1985;-41
2021/09/25 01:17:40;;;;;;;;;;;;;;;21.75;58.31;100872.97;5030606;28;1522;-41
2021/09/25 01:20:09;;;;;;;;;;;;;;;21.74;57.88;100877.47;5023773;28;1491;-41
2021/09/25 01:22:37;;;;;;;;;;;;;;;21.76;58.08;100880.03;5024052;28;1880;-42
2021/09/25 01:25:04;;;;;;;;;;;;;;;21.75;57.90;100883.72;5025423;28;1941;-41
2021/09/25 01:27:30;;;;;;;;;;;;;;;21.74;57.88;100888.25;5031037;28;1709;-41
2021/09/25 01:29:57;;;;;;;;;;;;;;;21.78;58.05;100900.41;5023202;28;1810;-41
2021/09/25 01:32:23;;;;;;;;;;;;;;;21.78;58.27;100910.31;5022860;28;1690;-41
2021/09/25 01:34:50;;;;;;;;;;;;;;;21.76;57.81;100906.94;5023220;28;1898;-41
2021/09/25 01:37:16;;;;;;;;;;;;;;;21.78;57.85;100895.00;5024973;28;1166;-41
2021/09/25 01:39:44;;;;;;;;;;;;;;;21.73;58.26;100889.25;5026758;28;1725;-41
2021/09/25 01:42:11;;;;;;;;;;;;;;;21.76;57.74;100897.00;5024541;28;1798;-42
2021/09/25 01:44:37;;;;;;;;;;;;;;;21.75;57.94;100906.09;5024631;28;1771;-41
2021/09/25 01:47:04;;;;;;;;;;;;;;;21.72;57.98;100909.06;5023851;28;2016;-42
2021/09/25 01:49:30;;;;;;;;;;;;;;;21.71;58.52;100918.16;5022634;28;1781;-41
2021/09/25 01:51:57;;;;;;;;;;;;;;;21.73;58.44;100916.16;5025366;28;1103;-41
2021/09/25 01:54:23;;;;;;;;;;;;;;;21.75;57.78;100924.94;5022122;28;1906;-41
2021/09/25 01:56:51;;;;;;;;;;;;;;;21.72;57.88;100917.16;5023591;28;1998;-41
2021/09/25 01:59:17;;;;;;;;;;;;;;;21.74;58.14;100925.91;5024142;28;1729;-41
2021/09/25 02:01:44;;;;;;;;;;;;;;;21.75;58.57;100919.56;5100899;23;3705;-43
2021/09/25 02:04:10;;;;;;;;;;;;;;;21.71;58.03;100930.78;4983719;28;1783;-44
2021/09/25 02:06:37;;;;;;;;;;;;;;;21.70;58.04;100924.53;4984627;28;1150;-46
2021/09/25 02:09:03;;;;;;;;;;;;;;;21.72;57.84;100930.63;4983790;28;2100;-43
2021/09/25 02:11:30;;;;;;;;;;;;;;;21.72;58.45;100929.78;4983714;28;1751;-44
2021/09/25 02:13:58;;;;;;;;;;;;;;;21.70;57.79;100939.84;4983590;28;2350;-43
2021/09/25 02:16:24;;;;;;;;;;;;;;;21.69;58.55;100925.53;4987649;28;1080;-43
2021/09/25 02:18:51;;;;;;;;;;;;;;;21.69;57.78;100939.00;4981570;28;2309;-43
2021/09/25 02:21:18;;;;;;;;;;;;;;;21.71;58.24;100925.41;4989854;28;2100;-45
2021/09/25 02:23:44;;;;;;;;;;;;;;;21.71;57.91;100930.78;4981727;28;1551;-44
2021/09/25 02:26:10;;;;;;;;;;;;;;;21.67;57.92;100934.78;4980737;28;1507;-43
2021/09/25 02:28:37;;;;;;;;;;;;;;;21.69;57.79;100946.25;4983175;28;1725;-43
2021/09/25 02:31:05;;;;;;;;;;;;;;;21.68;58.52;100942.69;4982391;28;1442;-44
2021/09/25 02:33:31;;;;;;;;;;;;;;;21.72;58.25;100944.06;4982337;28;1081;-43
2021/09/25 02:35:58;;;;;;;;;;;;;;;21.68;58.57;100958.81;4980936;28;2245;-43
2021/09/25 02:38:24;;;;;;;;;;;;;;;21.67;57.86;100962.53;4992026;28;1782;-44
2021/09/25 02:40:51;;;;;;;;;;;;;;;21.69;57.86;100971.28;4981921;28;1590;-45
2021/09/25 02:43:18;;;;;;;;;;;;;;;21.69;58.07;100968.59;4981877;28;1074;-43
2021/09/25 02:45:44;;;;;;;;;;;;;;;21.70;57.66;100964.91;4981616;28;2030;-43
2021/09/25 02:48:12;;;;;;;;;;;;;;;21.68;58.12;100974.13;4982003;28;1972;-43
2021/09/25 02:50:39;;;;;;;;;;;;;;;21.67;58.48;100970.59;4983393;28;1935;-44
2021/09/25 02:53:05;;;;;;;;;;;;;;;21.66;57.76;100985.03;4987200;28;1618;-43
2021/09/25 02:55:32;;;;;;;;;;;;;;;21.69;58.54;100992.81;4980596;28;1979;-46
2021/09/25 02:57:58;;;;;;;;;;;;;;;21.65;58.37;100981.50;4982128;28;1908;-42
2021/09/25 03:00:25;;;;;;;;;;;;;;;21.68;57.59;101007.25;4982157;28;1522;-44
2021/09/25 03:02:51;;;;;;;;;;;;;;;21.66;57.71;101003.88;4981665;28;1308;-44
2021/09/25 03:05:19;;;;;;;;;;;;;;;21.69;57.95;100998.22;4980874;28;1726;-43
2021/09/25 03:07:45;;;;;;;;;;;;;;;21.67;58.34;101007.44;4989760;28;2017;-44
2021/09/25 03:10:12;;;;;;;;;;;;;;;21.67;58.03;101013.66;4982771;28;1785;-43
2021/09/25 03:12:39;;;;;;;;;;;;;;;21.64;57.67;101022.84;4981699;28;1477;-43
2021/09/25 03:15:06;;;;;;;;;;;;;;;21.65;57.75;101023.72;4981887;28;1978;-44
2021/09/25 03:17:33;;;;;;;;;;;;;;;21.65;57.75;101040.72;4989428;28;1630;-44
2021/09/25 03:19:59;;;;;;;;;;;;;;;21.68;58.27;101034.19;4980906;28;1525;-44
2021/09/25 03:22:27;;;;;;;;;;;;;;;21.63;58.52;101041.88;4983275;28;1649;-44
2021/09/25 03:24:54;;;;;;;;;;;;;;;21.68;58.13;101055.72;4981495;28;1681;-45
2021/09/25 03:27:20;;;;;;;;;;;;;;;21.66;57.67;101041.56;4981621;28;1082;-45
2021/09/25 03:29:47;;;;;;;;;;;;;;;21.62;58.11;101045.53;4980855;28;1678;-45
2021/09/25 03:32:13;;;;;;;;;;;;;;;21.62;57.63;101042.84;4981724;28;2153;-43
2021/09/25 03:34:40;;;;;;;;;;;;;;;21.62;57.64;101050.91;4983452;28;1907;-43
2021/09/25 03:37:06;;;;;;;;;;;;;;;21.64;58.39;101057.00;4991492;28;1051;-44
2021/09/25 03:39:34;;;;;;;;;;;;;;;21.65;58.41;101064.94;4984316;28;1828;-43
2021/09/25 03:42:00;;;;;;;;;;;;;;;21.60;57.97;101056.44;4984120;28;1697;-45
2021/09/25 03:44:27;;;;;;;;;;;;;;;21.61;57.97;101058.16;4986181;28;1908;-44
2021/09/25 03:46:55;;;;;;;;;;;;;;;21.62;58.29;101067.91;4986928;28;1642;-44
2021/09/25 03:49:21;;;;;;;;;;;;;;;21.63;57.98;101068.78;4986011;28;1520;-43
2021/09/25 03:51:48;;;;;;;;;;;;;;;21.60;58.01;101063.66;4991260;28;1079;-44
2021/09/25 03:54:14;;;;;;;;;;;;;;;21.63;58.05;101072.31;4984897;28;2050;-43
2021/09/25 03:56:42;;;;;;;;;;;;;;;21.60;57.59;101063.66;4986568;28;1641;-43
2021/09/25 03:59:09;;;;;;;;;;;;;;;21.61;58.31;101070.75;4986200;28;1613;-44
2021/09/25 04:01:35;;;;;;;;;;;;;;;21.65;57.86;101058.72;4985980;28;1756;-43
2021/09/25 04:04:02;;;;;;;;;;;;;;;21.62;57.71;101069.75;4985840;28;1504;-43
2021/09/25 04:06:28;;;;;;;;;;;;;;;21.61;58.05;101066.22;4984905;28;1525;-44
2021/09/25 04:08:55;;;;;;;;;;;;;;;21.61;57.64;101076.16;4983921;28;1784;-43
2021/09/25 04:11:21;;;;;;;;;;;;;;;21.60;57.75;101077.97;4987180;28;1004;-44
2021/09/25 04:13:49;;;;;;;;;;;;;;;21.62;58.10;101072.44;4988204;28;1862;-46
2021/09/25 04:16:15;;;;;;;;;;;;;;;21.58;57.87;101090.72;4991290;28;1906;-44
2021/09/25 04:18:42;;;;;;;;;;;;;;;21.60;57.79;101094.13;4983562;28;1584;-44
2021/09/25 04:21:08;;;;;;;;;;;;;;;21.60;58.26;101104.03;4985391;28;1668;-43
2021/09/25 04:23:35;;;;;;;;;;;;;;;21.59;57.66;101095.13;4987914;28;2063;-43
2021/09/25 04:26:01;;;;;;;;;;;;;;;21.62;57.71;101102.06;4985215;28;1843;-44
2021/09/25 04:28:28;;;;;;;;;;;;;;;21.58;57.69;101111.41;4984443;28;1857;-43
2021/09/25 04:30:56;;;;;;;;;;;;;;;21.59;58.06;101115.81;4983029;28;1602;-45
2021/09/25 04:33:22;;;;;;;;;;;;;;;21.59;57.67;101124.72;4983886;28;1874;-43
2021/09/25 04:35:48;;;;;;;;;;;;;;;21.61;57.42;101135.34;4986006;28;1972;-43
2021/09/25 04:38:15;;;;;;;;;;;;;;;21.59;58.19;101135.50;4991611;28;1604;-43
2021/09/25 04:40:42;;;;;;;;;;;;;;;21.57;57.47;101136.63;4983264;28;1850;-44
2021/09/25 04:43:08;;;;;;;;;;;;;;;21.63;58.26;101150.38;4983086;28;1720;-43
2021/09/25 04:45:35;;;;;;;;;;;;;;;21.60;58.20;101155.19;4985240;28;1520;-43
2021/09/25 04:48:03;;;;;;;;;;;;;;;21.62;58.25;101155.88;4985032;28;1866;-45
2021/09/25 04:50:30;;;;;;;;;;;;;;;21.59;57.72;101148.94;4983997;28;1092;-43
2021/09/25 04:53:05;;;;;;;;;;;;;;;21.56;57.37;101149.22;4992466;28;1637;-43
2021/09/25 04:55:31;;;;;;;;;;;;;;;21.57;57.74;101142.88;4984080;28;1906;-43
2021/09/25 04:57:58;;;;;;;;;;;;;;;21.58;57.33;101159.84;4985286;28;1533;-43
2021/09/25 05:00:24;;;;;;;;;;;;;;;21.60;57.88;101157.88;4985487;28;1670;-43
2021/09/25 05:02:51;;;;;;;;;;;;;;;21.58;57.53;101152.63;4984840;28;1396;-43
2021/09/25 05:05:19;;;;;;;;;;;;;;;21.58;57.39;101157.16;4983915;28;1556;-43
2021/09/25 05:07:45;;;;;;;;;;;;;;;21.60;58.20;101168.63;4992872;28;1852;-44
2021/09/25 05:10:12;;;;;;;;;;;;;;;21.62;57.58;101169.34;4985767;28;1521;-44
2021/09/25 05:12:38;;;;;;;;;;;;;;;21.63;57.88;101174.59;4984439;28;1530;-42
2021/09/25 05:15:05;;;;;;;;;;;;;;;21.59;57.82;101169.63;4984472;28;1898;-43
2021/09/25 05:17:32;;;;;;;;;;;;;;;21.63;57.66;101185.34;4992646;28;2107;-43
2021/09/25 05:19:58;;;;;;;;;;;;;;;21.60;58.08;101176.69;4983874;28;1754;-43
2021/09/25 05:22:26;;;;;;;;;;;;;;;21.63;57.68;101187.19;4986024;28;1629;-43
2021/09/25 05:24:52;;;;;;;;;;;;;;;21.61;58.17;101178.41;4984450;28;1111;-45
2021/09/25 05:27:19;;;;;;;;;;;;;;;21.65;57.38;101186.06;4984431;28;1751;-43
2021/09/25 05:29:45;;;;;;;;;;;;;;;21.64;57.63;101188.88;4983712;28;1801;-43
2021/09/25 05:32:12;;;;;;;;;;;;;;;21.66;57.17;101203.03;4985036;28;1764;-43
2021/09/25 05:34:41;;;;;;;;;;;;;;;21.66;57.80;101197.66;4985557;28;1799;-43
2021/09/25 05:37:08;;;;;;;;;;;;;;;21.73;58.00;101209.56;4992924;28;1969;-43
2021/09/25 05:39:36;;;;;;;;;;;;;;;21.72;57.64;101194.41;4983369;28;1939;-43
2021/09/25 05:42:02;;;;;;;;;;;;;;;21.71;57.09;101195.41;4983416;28;1573;-44
2021/09/25 05:44:29;;;;;;;;;;;;;;;21.72;57.02;101202.47;4984725;28;1586;-43
2021/09/25 05:46:56;;;;;;;;;;;;;;;21.74;56.93;101194.25;4985021;28;1481;-43
2021/09/25 05:49:22;;;;;;;;;;;;;;;21.74;57.42;101192.41;4985050;28;1569;-43
2021/09/25 05:51:50;;;;;;;;;;;;;;;21.75;57.31;101187.91;4990205;28;1051;-43
2021/09/25 05:54:16;;;;;;;;;;;;;;;21.76;57.32;101193.13;4984061;28;2249;-43
2021/09/25 05:56:44;;;;;;;;;;;;;;;21.80;57.10;101199.91;4984939;28;1945;-43
2021/09/25 05:59:10;;;;;;;;;;;;;;;21.87;57.09;101207.44;4985132;28;1691;-43
2021/09/25 06:01:37;;;;;;;;;;;;;;;21.81;57.34;101201.63;4984814;28;2626;-43
2021/09/25 06:04:04;;;;;;;;;;;;;;;21.84;56.89;101217.50;4984969;28;1491;-43
2021/09/25 06:06:30;;;;;;;;;;;;;;;21.89;57.09;101216.22;4987060;28;1334;-43
2021/09/25 06:08:57;;;;;;;;;;;;;;;21.84;57.54;101216.63;4986148;28;1837;-43
2021/09/25 06:11:24;;;;;;;;;;;;;;;21.89;56.76;101221.59;4982145;28;1544;-43
2021/09/25 06:13:52;;;;;;;;;;;;;;;21.97;57.08;101227.13;4987672;28;1760;-43
2021/09/25 06:16:22;;;;;;;;;;;;;;;21.90;57.12;101210.66;4986021;28;1914;-43
2021/09/25 06:18:50;;;;;;;;;;;;;;;21.91;57.22;101227.69;4978459;28;1802;-43
2021/09/25 06:21:16;;;;;;;;;;;;;;;21.98;56.55;101229.66;4989342;28;1806;-43
2021/09/25 06:23:43;;;;;;;;;;;;;;;21.97;56.93;101232.50;4980877;28;2027;-43
2021/09/25 06:26:10;;;;;;;;;;;;;;;21.96;57.15;101246.94;4984382;28;1722;-43
2021/09/25 06:28:36;;;;;;;;;;;;;;;21.94;57.01;101238.16;4984484;28;1735;-44
2021/09/25 06:31:04;;;;;;;;;;;;;;;21.92;57.45;101245.53;4982981;28;1798;-43
2021/09/25 06:33:31;;;;;;;;;;;;;;;21.91;57.20;101247.38;4982895;28;1536;-43
2021/09/25 06:35:57;;;;;;;;;;;;;;;21.92;57.12;101256.31;4985857;28;1974;-43
2021/09/25 06:38:24;;;;;;;;;;;;;;;21.93;57.28;101266.09;4990119;28;1900;-43
2021/09/25 06:40:50;;;;;;;;;;;;;;;21.94;57.46;101260.53;4983715;28;1742;-44
2021/09/25 06:43:17;;;;;;;;;;;;;;;21.91;57.15;101257.31;4982361;28;1661;-43
2021/09/25 06:45:43;;;;;;;;;;;;;;;21.93;57.12;101253.47;4982725;28;1474;-44
2021/09/25 06:48:11;;;;;;;;;;;;;;;21.91;56.91;101260.84;4984582;28;1685;-44
2021/09/25 06:50:38;;;;;;;;;;;;;;;21.97;57.35;101260.28;4984308;28;1009;-43
2021/09/25 06:53:04;;;;;;;;;;;;;;;21.97;57.41;101276.44;4991236;28;1987;-43
2021/09/25 06:55:31;;;;;;;;;;;;;;;21.95;56.83;101270.34;4982190;28;1981;-43
2021/09/25 06:57:57;;;;;;;;;;;;;;;21.96;57.22;101269.34;4983219;28;1534;-44
2021/09/25 07:00:24;;;;;;;;;;;;;;;21.97;56.81;101267.50;4983372;28;1545;-43
2021/09/25 07:02:50;;;;;;;;;;;;;;;21.98;56.90;101271.88;4982959;28;1818;-43
2021/09/25 07:05:18;;;;;;;;;;;;;;;22.05;57.24;101273.03;4982304;28;1738;-44
2021/09/25 07:07:45;;;;;;;;;;;;;;;22.01;56.94;101277.84;4990758;28;1940;-43
2021/09/25 07:10:14;;;;;;;;;;;;;;;22.01;56.64;101287.78;4984334;28;1688;-43
2021/09/25 07:12:41;;;;;;;;;;;;;;;22.03;57.33;101288.47;4984577;28;1731;-43
2021/09/25 07:15:08;;;;;;;;;;;;;;;22.02;57.11;101278.69;4988741;28;1032;-43
2021/09/25 07:17:34;;;;;;;;;;;;;;;22.02;56.79;101284.06;4994676;28;2029;-42
2021/09/25 07:20:01;;;;;;;;;;;;;;;22.05;57.35;101295.41;4985762;28;1512;-43
2021/09/25 07:22:28;;;;;;;;;;;;;;;22.08;56.61;101294.28;4988328;28;1557;-43
2021/09/25 07:24:55;;;;;;;;;;;;;;;22.04;56.97;101287.47;4986145;28;1742;-45
2021/09/25 07:27:22;;;;;;;;;;;;;;;22.02;57.05;101301.09;4986459;28;1147;-43
2021/09/25 07:29:49;;;;;;;;;;;;;;;22.06;57.43;101307.03;4985671;28;2010;-43
2021/09/25 07:32:16;;;;;;;;;;;;;;;22.05;56.68;101299.97;4986174;28;1567;-43
2021/09/25 07:34:42;;;;;;;;;;;;;;;22.08;57.61;101318.50;4987898;28;1986;-43
2021/09/25 07:37:09;;;;;;;;;;;;;;;22.07;57.48;101297.97;4995310;28;1910;-44
2021/09/25 07:39:37;;;;;;;;;;;;;;;22.08;57.12;101307.75;4985879;28;2074;-43
2021/09/25 07:42:04;;;;;;;;;;;;;;;22.08;57.35;101307.75;4985462;28;2071;-43
2021/09/25 07:44:30;;;;;;;;;;;;;;;22.12;57.30;101333.41;4986521;28;1613;-43
2021/09/25 07:46:57;;;;;;;;;;;;;;;22.10;57.32;101303.06;4988016;28;1704;-43
2021/09/25 07:49:23;;;;;;;;;;;;;;;22.07;57.39;101303.38;4987394;28;1688;-43
2021/09/25 07:51:50;;;;;;;;;;;;;;;22.09;57.05;101314.84;4992476;28;1086;-43
2021/09/25 07:54:16;;;;;;;;;;;;;;;22.09;57.09;101306.75;4985992;28;2348;-43
2021/09/25 07:56:44;;;;;;;;;;;;;;;22.11;57.37;101312.84;4987098;28;1975;-43
2021/09/25 07:59:10;;;;;;;;;;;;;;;22.13;57.31;101324.34;4987333;28;1645;-43
2021/09/25 08:01:37;;;;;;;;;;;;;;;22.11;57.06;101317.41;4986906;28;1720;-43
2021/09/25 08:04:04;;;;;;;;;;;;;;;22.13;57.31;101324.34;4987051;28;1823;-43
2021/09/25 08:06:30;;;;;;;;;;;;;;;22.15;57.33;101322.34;4989415;28;1108;-43
2021/09/25 08:08:57;;;;;;;;;;;;;;;22.14;57.32;101325.19;4988601;28;2067;-43
2021/09/25 08:11:23;;;;;;;;;;;;;;;22.19;57.15;101317.53;4986842;28;1556;-43
2021/09/25 08:13:51;;;;;;;;;;;;;;;22.21;57.28;101307.47;4987124;28;1837;-43
2021/09/25 08:16:17;;;;;;;;;;;;;;;22.14;57.10;101326.03;4990557;28;1985;-43
2021/09/25 08:18:44;;;;;;;;;;;;;;;22.20;56.99;101311.13;4985143;28;1840;-43
2021/09/25 08:21:10;;;;;;;;;;;;;;;22.16;56.90;101332.16;4985781;28;1845;-43
2021/09/25 08:23:37;;;;;;;;;;;;;;;22.16;57.48;101328.56;4988087;28;1810;-43
2021/09/25 08:26:03;;;;;;;;;;;;;;;22.15;57.17;101313.44;4986899;28;1506;-44
2021/09/25 08:28:30;;;;;;;;;;;;;;;22.17;57.15;101325.75;4985706;28;1719;-43
2021/09/25 08:30:58;;;;;;;;;;;;;;;22.22;57.17;101325.31;4984748;28;1570;-43
2021/09/25 08:33:24;;;;;;;;;;;;;;;22.19;56.81;101309.44;4984973;28;1557;-43
2021/09/25 08:35:51;;;;;;;;;;;;;;;22.23;57.28;101341.34;4985255;28;1963;-43
2021/09/25 08:38:17;;;;;;;;;;;;;;;22.19;57.42;101307.59;4982415;28;1635;-45
2021/09/25 08:40:43;;;;;;;;;;;;;;;22.21;57.75;101324.47;4984697;28;1891;-42
2021/09/25 08:43:10;;;;;;;;;;;;;;;22.22;57.52;101301.06;4984794;28;1661;-44
2021/09/25 08:45:36;;;;;;;;;;;;;;;22.22;56.84;101307.31;4985836;28;1485;-43
2021/09/25 08:48:05;;;;;;;;;;;;;;;22.21;56.76;101316.38;4985716;28;1776;-44
2021/09/25 08:50:31;;;;;;;;;;;;;;;22.23;57.33;101317.09;4985177;28;1148;-43
2021/09/25 08:52:58;;;;;;;;;;;;;;;22.23;57.08;101310.88;4993024;28;1654;-43
2021/09/25 08:55:24;;;;;;;;;;;;;;;22.22;57.20;101312.72;4984334;28;1843;-43
2021/09/25 08:57:51;;;;;;;;;;;;;;;22.26;57.22;101310.59;4986242;28;1906;-43
2021/09/25 09:00:31;;;;;;;;;;;;;;;22.21;57.20;101302.91;4984813;28;1768;-45
2021/09/25 09:03:15;;;;;;;;;;;;;;;22.28;57.33;101327.47;4984853;28;1682;-45
2021/09/25 09:05:43;;;;;;;;;;;;;;;22.29;57.24;101315.72;4986214;28;1040;-43
2021/09/25 09:08:10;;;;;;;;;;;;;;;22.30;57.38;101313.84;4992582;28;1969;-43
2021/09/25 09:10:37;;;;;;;;;;;;;;;22.27;57.25;101309.63;4984552;28;1771;-43
2021/09/25 09:13:04;;;;;;;;;;;;;;;22.27;57.50;101308.78;4984783;28;1552;-43
2021/09/25 09:15:32;;;;;;;;;;;;;;;22.31;57.39;101318.25;4984890;28;1059;-44
2021/09/25 09:18:00;;;;;;;;;;;;;;;22.30;57.34;101312.00;4981605;28;1968;-43
2021/09/25 09:20:27;;;;;;;;;;;;;;;22.31;57.30;101305.63;4985904;28;1529;-43
2021/09/25 09:23:11;;;;;;;;;;;;;;;22.29;57.16;101314.88;4985345;28;1641;-43
2021/09/25 09:25:37;;;;;;;;;;;;;;;22.33;56.96;101313.59;4987488;28;1063;-44
2021/09/25 09:28:04;;;;;;;;;;;;;;;22.35;57.13;101316.97;4989027;28;1911;-43
2021/09/25 09:30:30;;;;;;;;;;;;;;;22.33;57.16;101318.97;4985605;28;1523;-43
2021/09/25 09:32:57;;;;;;;;;;;;;;;22.35;57.34;101317.81;4985567;28;1680;-44
2021/09/25 09:35:24;;;;;;;;;;;;;;;22.32;57.13;101306.47;4984510;28;1550;-44
2021/09/25 09:37:55;;;;;;;;;;;;;;;22.33;56.81;101292.88;4986719;28;1898;-44
2021/09/25 09:40:25;;;;;;;;;;;;;;;22.34;57.29;101316.13;4983707;28;2034;-43
2021/09/25 09:42:52;;;;;;;;;;;;;;;22.34;57.05;101310.75;4984054;28;1917;-44
2021/09/25 09:45:25;;;;;;;;;;;;;;;22.33;56.95;101309.03;4985369;28;1475;-43
2021/09/25 09:47:51;;;;;;;;;;;;;;;22.38;57.29;101316.66;4986277;28;1617;-43
2021/09/25 09:50:19;;;;;;;;;;;;;;;22.37;57.35;101315.00;4985234;28;1633;-44
2021/09/25 09:52:46;;;;;;;;;;;;;;;22.33;57.01;101313.59;4987180;28;2032;-44
2021/09/25 09:55:21;;;;;;;;;;;;;;;22.40;56.82;101314.69;4984930;28;1649;-44
2021/09/25 09:57:48;;;;;;;;;;;;;;;;;;4984762;28;1903;-44
2021/09/25 10:00:16;;;;;;;;;;;;;;;22.34;57.05;101309.88;4983229;28;1575;-45
2021/09/25 10:02:42;;;;;;;;;;;;;;;22.35;57.34;101309.75;4983181;28;1336;-44
2021/09/25 10:05:09;;;;;;;;;;;;;;;22.42;57.30;101318.97;4983150;28;1557;-44
2021/09/25 10:07:36;;;;;;;;;;;;;;;22.38;57.26;101300.50;4992727;28;1740;-43
2021/09/25 10:10:03;;;;;;;;;;;;;;;22.36;57.14;101318.66;4984882;28;1348;-43
2021/09/25 10:12:29;;;;;;;;;;;;;;;;;;4989652;28;1643;-43
2021/09/25 10:14:57;;;;;;;;;;;;;;;;;;4981131;28;1662;-43
2021/09/25 10:17:23;;;;;;;;;;;;;;;;;;4982450;28;1910;-43
2021/09/25 10:19:51;;;;;;;;;;;;;;;22.44;57.31;101329.56;4982990;28;1535;-44
2021/09/25 10:22:20;;;;;;;;;;;;;;;22.40;57.37;101315.56;4985185;28;1605;-45
2021/09/25 10:24:51;;;;;;;;;;;;;;;22.41;56.76;101321.78;4984829;28;1111;-43
2021/09/25 10:27:17;;;;;;;;;;;;;;;22.39;56.83;101310.31;4982510;28;1732;-43
2021/09/25 10:29:45;;;;;;;;;;;;;;;22.42;56.97;101308.19;4982447;28;2143;-43
2021/09/25 10:32:15;;;;;;;;;;;;;;;22.43;57.00;101312.56;4983626;28;1577;-44
2021/09/25 10:34:52;;;;;;;;;;;;;;;22.44;57.23;101316.09;4984735;28;1622;-43
2021/09/25 10:37:20;;;;;;;;;;;;;;;22.40;57.47;101294.00;4992280;28;1958;-45
2021/09/25 10:39:56;;;;;;;;;;;;;;;22.43;57.44;101298.25;4985630;28;1000;-43
2021/09/25 10:42:22;;;;;;;;;;;;;;;22.42;57.02;101296.53;4982428;28;1167;-44
2021/09/25 10:44:50;;;;;;;;;;;;;;;22.41;57.05;101293.00;4982618;28;2088;-44
2021/09/25 10:47:17;;;;;;;;;;;;;;;22.40;57.20;101288.59;4982543;28;1617;-43
2021/09/25 10:49:45;;;;;;;;;;;;;;;22.40;56.98;101282.34;4984235;28;1957;-44
2021/09/25 10:52:13;;;;;;;;;;;;;;;22.40;57.16;101287.72;4992377;28;1094;-43
2021/09/25 10:54:41;;;;;;;;;;;;;;;22.43;56.98;101280.22;4982847;28;963;-43
2021/09/25 10:57:08;;;;;;;;;;;;;;;22.45;56.99;101285.47;4982264;28;2057;-44
2021/09/25 10:59:35;;;;;;;;;;;;;;;22.47;57.16;101277.25;4983437;28;1482;-43
2021/09/25 11:02:01;;;;;;;;;;;;;;;22.43;56.91;101282.06;4983842;28;1563;-43
2021/09/25 11:04:33;;;;;;;;;;;;;;;22.45;57.58;101285.47;4984457;28;1794;-44
2021/09/25 11:07:01;;;;;;;;;;;;;;;22.47;57.09;101288.88;4990509;28;987;-43
2021/09/25 11:09:30;;;;;;;;;;;;;;;22.42;57.14;101275.84;4982459;28;2062;-44
2021/09/25 11:12:01;;;;;;;;;;;;;;;22.43;57.15;101291.00;4983026;28;2011;-43
2021/09/25 11:14:29;;;;;;;;;;;;;;;22.45;57.09;101274.69;4980195;28;1780;-44
2021/09/25 11:16:57;;;;;;;;;;;;;;;22.48;57.27;101269.00;4990359;28;1903;-42
2021/09/25 11:19:31;;;;;;;;;;;;;;;22.49;57.11;101254.53;4983510;28;1819;-43
2021/09/25 11:21:59;;;;;;;;;;;;;;;22.49;57.31;101269.88;4984043;28;1112;-43
2021/09/25 11:24:26;;;;;;;;;;;;;;;22.52;56.85;101274.94;4982153;28;1454;-43
2021/09/25 11:26:52;;;;;;;;;;;;;;;22.50;56.97;101264.34;4992028;28;2163;-43
2021/09/25 11:29:20;;;;;;;;;;;;;;;22.52;57.25;101256.94;4983491;28;1994;-43
2021/09/25 11:31:47;;;;;;;;;;;;;;;22.59;57.13;101263.44;4982964;28;1297;-43
2021/09/25 11:34:20;;;;;;;;;;;;;;;22.61;56.81;101268.69;4982484;28;1116;-43
2021/09/25 11:36:49;;;;;;;;;;;;;;;22.59;56.67;101249.94;4988646;28;1906;-43
2021/09/25 11:39:15;;;;;;;;;;;;;;;22.55;56.86;101253.94;4979746;28;2594;-43
2021/09/25 11:41:42;;;;;;;;;;;;;;;22.55;57.00;101253.94;4982436;28;1593;-43
2021/09/25 11:44:08;;;;;;;;;;;;;;;22.51;56.92;101240.91;4981709;28;1686;-43
2021/09/25 11:46:36;;;;;;;;;;;;;;;22.57;57.31;101243.03;4983018;28;1971;-43
2021/09/25 11:49:03;;;;;;;;;;;;;;;22.58;57.04;101237.50;4983440;28;1682;-43
2021/09/25 11:51:29;;;;;;;;;;;;;;;22.54;57.19;101241.47;4982783;28;1006;-43
2021/09/25 11:53:59;;;;;;;;;;;;;;;22.53;57.11;101245.16;4985190;28;2060;-43
2021/09/25 11:56:27;;;;;;;;;;;;;;;22.57;56.79;101248.41;4984199;28;1665;-44
2021/09/25 11:58:53;;;;;;;;;;;;;;;22.57;56.92;101251.94;4985880;28;2052;-43
2021/09/25 12:01:20;;;;;;;;;;;;;;;22.62;56.71;101233.50;4987104;28;2325;-44
2021/09/25 12:03:47;;;;;;;;;;;;;;;22.60;56.82;101250.78;4985842;28;2015;-43
2021/09/25 12:06:14;;;;;;;;;;;;;;;22.59;56.85;101254.50;4987868;28;1151;-43
2021/09/25 12:08:40;;;;;;;;;;;;;;;22.58;57.16;101231.22;4990447;28;1774;-43
2021/09/25 12:11:08;;;;;;;;;;;;;;;22.59;56.92;101236.47;4987059;28;1610;-43
2021/09/25 12:13:35;;;;;;;;;;;;;;;22.55;57.09;101226.16;4987014;28;1981;-43
2021/09/25 12:16:03;;;;;;;;;;;;;;;22.51;56.78;101230.97;4988658;28;998;-43
2021/09/25 12:18:31;;;;;;;;;;;;;;;22.52;57.09;101240.78;4986741;28;1914;-44
2021/09/25 12:21:00;;;;;;;;;;;;;;;22.54;56.72;101227.13;4987551;28;1613;-45
2021/09/25 12:23:30;;;;;;;;;;;;;;;22.51;57.10;101236.38;4989663;28;1678;-43
2021/09/25 12:25:56;;;;;;;;;;;;;;;22.53;57.33;101233.53;4986453;28;1557;-43
2021/09/25 12:28:27;;;;;;;;;;;;;;;22.56;57.25;101233.22;4984560;28;1543;-44
2021/09/25 12:30:53;;;;;;;;;;;;;;;22.52;56.94;101232.69;4984861;28;1785;-43
2021/09/25 12:33:20;;;;;;;;;;;;;;;22.49;57.34;101226.75;4985683;28;1982;-43
2021/09/25 12:35:53;;;;;;;;;;;;;;;22.54;57.31;101236.09;4987145;28;1323;-44
2021/09/25 12:38:22;;;;;;;;;;;;;;;22.52;56.82;101231.81;4992881;28;1911;-44
2021/09/25 12:40:48;;;;;;;;;;;;;;;22.53;57.49;101223.59;4985713;28;2327;-44
2021/09/25 12:43:15;;;;;;;;;;;;;;;22.58;57.25;101231.22;4984892;28;1705;-43
2021/09/25 12:45:42;;;;;;;;;;;;;;;22.51;57.50;101230.97;4985073;28;1626;-43
2021/09/25 12:48:14;;;;;;;;;;;;;;;22.54;57.15;101224.44;4986385;28;1720;-43
2021/09/25 12:50:47;;;;;;;;;;;;;;;22.51;57.05;101225.59;4986378;28;1006;-44